Time;durP1;ratioP1;P1;durP2;ratioP2;P2;SDS_P1;SDS_P2;PMS_P1;PMS_P2;Temp;Humidity;BMP_temperature;BMP_pressure;BME280_temperature;BME280_humidity;BME280_pressure;Samples;Min_cycle;Max_cycle;Signal;HPM_P1;HPM_P2
2022/01/26 00:00:54;;;;;;;27.73;12.40;;;;;;;;;;5050141;28;20042;-71
2022/01/26 00:06:23;;;;;;;28.10;13.20;;;;;;;;;;5055525;28;20041;-71
2022/01/26 00:08:51;;;;;;;30.40;13.95;;;;;;;;;;5055352;28;20044;-71
2022/01/26 00:11:20;;;;;;;27.50;13.40;;;;;;;;;;5053875;28;20045;-71
2022/01/26 00:13:54;;;;;;;31.08;15.18;;;;;;;;;;5054262;28;20049;-71
2022/01/26 00:16:47;;;;;;;32.15;14.38;;;;;;;;;;5055202;28;20045;-71
2022/01/26 00:19:29;;;;;;;31.40;14.00;;;;;;;;;;5053777;28;20407;-71
2022/01/26 00:22:00;;;;;;;27.02;13.10;;;;;;;;;;5053727;28;20080;-71
2022/01/26 00:25:18;;;;;;;28.00;13.13;;;;;;;;;;5053656;28;20152;-72
2022/01/26 00:38:59;;;;;;;25.90;12.38;;;;;;;;;;5053452;28;20045;-71
2022/01/26 00:41:35;;;;;;;24.98;12.65;;;;;;;;;;5054984;28;20048;-71
2022/01/26 00:44:05;;;;;;;25.35;12.75;;;;;;;;;;5054321;28;20559;-71
2022/01/26 00:46:36;;;;;;;23.92;12.50;;;;;;;;;;5053370;28;20063;-71
2022/01/26 00:49:04;;;;;;;28.08;13.20;;;;;;;;;;5054538;28;20488;-71
2022/01/26 00:51:35;;;;;;;26.05;12.32;;;;;;;;;;5053062;28;20411;-71
2022/01/26 00:54:06;;;;;;;28.15;13.43;;;;;;;;;;5054225;28;20059;-71
2022/01/26 00:56:36;;;;;;;26.85;13.63;;;;;;;;;;5036594;28;20071;-71
2022/01/26 00:59:05;;;;;;;26.33;12.57;;;;;;;;;;5054406;28;20037;-71
2022/01/26 01:01:34;;;;;;;27.00;12.52;;;;;;;;;;5054321;28;20055;-71
2022/01/26 01:04:02;;;;;;;25.17;12.63;;;;;;;;;;5052832;28;20045;-71
2022/01/26 01:06:44;;;;;;;24.60;13.27;;;;;;;;;;5054439;28;20045;-71
2022/01/26 01:09:12;;;;;;;25.55;11.75;;;;;;;;;;5054482;28;20466;-71
2022/01/26 01:12:12;;;;;;;23.42;11.57;;;;;;;;;;5054329;28;20484;-71
2022/01/26 01:14:42;;;;;;;27.20;13.10;;;;;;;;;;5054377;28;20032;-71
2022/01/26 01:29:23;;;;;;;25.60;12.43;;;;;;;;;;5054038;28;20510;-71
2022/01/26 01:31:58;;;;;;;23.48;11.80;;;;;;;;;;5052652;28;20144;-71
2022/01/26 01:34:30;;;;;;;24.35;11.95;;;;;;;;;;5053852;28;20041;-71
2022/01/26 01:37:07;;;;;;;23.77;12.13;;;;;;;;;;5036215;28;20041;-71
2022/01/26 01:39:39;;;;;;;23.50;11.50;;;;;;;;;;5052134;28;20491;-71
2022/01/26 01:42:17;;;;;;;23.38;12.20;;;;;;;;;;5052340;28;20563;-71
2022/01/26 01:44:45;;;;;;;22.83;11.77;;;;;;;;;;5053809;28;20425;-71
2022/01/26 01:47:34;;;;;;;23.75;11.70;;;;;;;;;;5035263;28;20041;-71
2022/01/26 01:50:07;;;;;;;24.27;11.70;;;;;;;;;;5053699;28;20044;-71
2022/01/26 01:52:38;;;;;;;22.35;10.90;;;;;;;;;;5051615;28;20051;-70
2022/01/26 01:55:12;;;;;;;24.27;11.05;;;;;;;;;;5053266;28;20492;-71
2022/01/26 01:57:43;;;;;;;21.33;11.52;;;;;;;;;;5052747;28;20051;-71
2022/01/26 02:00:19;;;;;;;27.27;12.63;;;;;;;;;;5052969;28;20061;-71
2022/01/26 02:02:46;;;;;;;19.35;11.15;;;;;;;;;;5053400;28;20037;-71
2022/01/26 02:05:15;;;;;;;22.83;10.30;;;;;;;;;;5051506;28;20041;-71
2022/01/26 02:07:46;;;;;;;19.60;10.40;;;;;;;;;;5053287;28;20037;-71
2022/01/26 02:10:14;;;;;;;21.80;11.25;;;;;;;;;;5053456;28;20068;-71
2022/01/26 02:12:47;;;;;;;23.45;10.68;;;;;;;;;;5052793;28;20052;-71
2022/01/26 02:15:25;;;;;;;21.48;10.77;;;;;;;;;;5051898;28;20492;-71
2022/01/26 02:18:19;;;;;;;19.38;10.38;;;;;;;;;;5052933;28;20080;-71
2022/01/26 02:55:07;;;;;;;19.13;9.55;;;;;;;;;;5052481;28;20135;-71
2022/01/26 02:57:52;;;;;;;18.55;9.70;;;;;;;;;;5052677;28;20479;-71
2022/01/26 03:00:33;;;;;;;23.80;9.70;;;;;;;;;;5085204;28;20055;-71
2022/01/26 03:03:29;;;;;;;21.15;10.43;;;;;;;;;;5052881;28;20045;-71
2022/01/26 03:06:02;;;;;;;19.98;10.65;;;;;;;;;;5051633;28;20055;-71
2022/01/26 03:08:41;;;;;;;19.73;9.75;;;;;;;;;;5052593;28;20044;-71
2022/01/26 03:11:13;;;;;;;19.80;9.25;;;;;;;;;;5052817;28;20039;-71
2022/01/26 03:13:53;;;;;;;21.13;9.70;;;;;;;;;;5052496;28;20136;-71
2022/01/26 03:16:31;;;;;;;20.13;9.65;;;;;;;;;;5051346;28;20045;-71
2022/01/26 03:21:45;;;;;;;18.63;9.38;;;;;;;;;;5051170;28;20136;-72
2022/01/26 03:35:18;;;;;;;23.17;9.85;;;;;;;;;;5055772;28;20158;-72
2022/01/26 03:37:53;;;;;;;19.75;9.07;;;;;;;;;;5055967;28;20076;-71
2022/01/26 03:40:33;;;;;;;19.27;9.70;;;;;;;;;;5054667;28;20072;-71
2022/01/26 03:43:02;;;;;;;17.27;10.15;;;;;;;;;;5055805;28;20091;-71
2022/01/26 03:46:03;;;;;;;18.88;9.93;;;;;;;;;;5054500;28;20475;-71
2022/01/26 03:48:32;;;;;;;20.15;9.57;;;;;;;;;;5055521;28;20045;-71
2022/01/26 03:51:00;;;;;;;18.67;9.57;;;;;;;;;;5055166;28;20048;-71
2022/01/26 03:53:31;;;;;;;21.23;10.23;;;;;;;;;;5054111;28;20047;-71
2022/01/26 03:56:02;;;;;;;18.15;9.15;;;;;;;;;;5055269;28;20068;-71
2022/01/26 03:58:36;;;;;;;19.00;9.65;;;;;;;;;;5055470;28;20455;-71
2022/01/26 04:01:04;;;;;;;19.02;10.27;;;;;;;;;;5055793;28;20065;-71
2022/01/26 04:03:51;;;;;;;19.40;9.88;;;;;;;;;;5055744;28;20476;-71
2022/01/26 04:06:43;;;;;;;20.42;10.30;;;;;;;;;;5053529;28;20495;-71
2022/01/26 04:09:42;;;;;;;20.65;9.48;;;;;;;;;;5054365;28;20045;-71
2022/01/26 04:12:36;;;;;;;22.52;10.55;;;;;;;;;;5054937;28;20045;-71
2022/01/26 04:15:32;;;;;;;22.17;9.93;;;;;;;;;;5053925;28;20041;-71
2022/01/26 04:18:06;;;;;;;;;;;;;;;;;;5054267;28;20049;-71
2022/01/26 04:20:38;;;;;;;19.20;9.63;;;;;;;;;;5054859;28;20011;-71
2022/01/26 04:23:26;;;;;;;19.05;9.07;;;;;;;;;;5053530;28;20040;-71
2022/01/26 04:25:57;;;;;;;17.75;9.43;;;;;;;;;;5053801;28;20045;-71
2022/01/26 04:28:31;;;;;;;21.08;9.60;;;;;;;;;;5053586;28;20407;-71
2022/01/26 04:30:59;;;;;;;18.10;10.00;;;;;;;;;;5054782;28;20044;-71
2022/01/26 04:33:33;;;;;;;18.90;9.40;;;;;;;;;;5054848;28;20442;-71
2022/01/26 04:36:02;;;;;;;20.17;10.35;;;;;;;;;;5054809;28;20041;-71
2022/01/26 04:38:39;;;;;;;19.45;10.45;;;;;;;;;;5054825;28;20120;-71
2022/01/26 04:44:01;;;;;;;19.13;9.57;;;;;;;;;;5053500;28;20063;-71
2022/01/26 04:46:28;;;;;;;16.10;9.35;;;;;;;;;;5054888;28;20095;-71
2022/01/26 04:49:01;;;;;;;22.15;10.43;;;;;;;;;;5053111;28;20052;-70
2022/01/26 04:51:30;;;;;;;22.33;10.30;;;;;;;;;;5052891;28;20403;-71
2022/01/26 04:53:57;;;;;;;20.25;9.88;;;;;;;;;;5054277;28;20052;-71
2022/01/26 04:56:25;;;;;;;20.02;9.68;;;;;;;;;;5054001;28;20117;-71
2022/01/26 04:58:55;;;;;;;18.25;9.75;;;;;;;;;;5054711;28;20487;-71
2022/01/26 05:01:24;;;;;;;19.52;9.98;;;;;;;;;;5054656;28;20539;-71
2022/01/26 05:03:54;;;;;;;23.80;10.18;;;;;;;;;;5053035;28;20135;-72
2022/01/26 05:06:25;;;;;;;19.45;9.90;;;;;;;;;;5052895;28;20443;-71
2022/01/26 05:08:54;;;;;;;23.63;10.90;;;;;;;;;;5054353;28;20170;-71
2022/01/26 05:11:47;;;;;;;20.88;10.23;;;;;;;;;;5054878;28;20107;-71
2022/01/26 05:14:18;;;;;;;21.33;10.13;;;;;;;;;;5053964;28;20139;-71
2022/01/26 05:16:48;;;;;;;19.65;10.02;;;;;;;;;;5052923;28;20120;-71
2022/01/26 05:19:41;;;;;;;22.20;10.48;;;;;;;;;;5055080;28;20382;-71
2022/01/26 05:22:34;;;;;;;22.27;10.00;;;;;;;;;;5053954;28;20045;-71
2022/01/26 05:25:26;;;;;;;21.63;9.98;;;;;;;;;;5052553;28;20048;-71
2022/01/26 05:27:54;;;;;;;18.25;9.68;;;;;;;;;;5051527;28;20510;-71
2022/01/26 05:30:24;;;;;;;21.35;10.57;;;;;;;;;;5051931;28;20041;-70
2022/01/26 05:32:52;;;;;;;20.40;10.52;;;;;;;;;;5053546;28;20116;-71
2022/01/26 05:35:24;;;;;;;25.40;11.05;;;;;;;;;;5052087;28;20046;-71
2022/01/26 05:37:56;;;;;;;25.25;11.75;;;;;;;;;;5053448;28;20341;-71
2022/01/26 05:40:24;;;;;;;23.27;10.80;;;;;;;;;;5053235;28;20040;-71
2022/01/26 05:42:55;;;;;;;23.50;10.55;;;;;;;;;;5053539;28;20514;-71
2022/01/26 05:45:54;;;;;;;24.02;11.15;;;;;;;;;;5053803;28;20144;-71
2022/01/26 05:48:23;;;;;;;18.52;10.02;;;;;;;;;;5053534;28;20388;-71
2022/01/26 05:51:03;;;;;;;20.73;10.35;;;;;;;;;;5053162;28;20063;-70
2022/01/26 05:53:33;;;;;;;22.67;10.30;;;;;;;;;;5051030;28;20071;-70
2022/01/26 05:56:01;;;;;;;21.38;10.35;;;;;;;;;;5033021;28;20045;-71
2022/01/26 05:58:31;;;;;;;25.30;11.23;;;;;;;;;;5032000;28;20049;-70
2022/01/26 06:01:04;;;;;;;21.02;11.52;;;;;;;;;;5033804;28;20045;-71
2022/01/26 06:03:56;;;;;;;26.17;10.60;;;;;;;;;;5031670;28;20057;-71
2022/01/26 06:07:05;;;;;;;23.50;11.40;;;;;;;;;;5031871;28;20042;-71
2022/01/26 06:09:32;;;;;;;22.42;11.00;;;;;;;;;;5032867;28;20121;-70
2022/01/26 06:16:01;;;;;;;25.55;13.15;;;;;;;;;;5033316;28;20025;-70
2022/01/26 06:18:44;;;;;;;26.90;12.80;;;;;;;;;;5032516;28;20049;-70
2022/01/26 06:21:11;;;;;;;24.27;11.95;;;;;;;;;;5033117;28;20042;-71
2022/01/26 06:23:45;;;;;;;27.38;12.45;;;;;;;;;;5032880;28;20048;-70
2022/01/26 06:26:12;;;;;;;24.15;13.43;;;;;;;;;;5031917;28;20470;-70
2022/01/26 06:28:42;;;;;;;23.17;11.88;;;;;;;;;;5032829;28;20542;-71
2022/01/26 06:31:15;;;;;;;25.83;12.27;;;;;;;;;;5015735;28;20407;-71
2022/01/26 06:33:48;;;;;;;27.58;12.85;;;;;;;;;;5033337;28;20476;-71
2022/01/26 06:36:17;;;;;;;24.25;11.68;;;;;;;;;;5032863;28;20042;-71
2022/01/26 06:38:50;;;;;;;22.40;11.68;;;;;;;;;;5033128;28;20037;-71
2022/01/26 06:41:23;;;;;;;19.20;10.38;;;;;;;;;;5033104;28;20044;-69
2022/01/26 06:44:03;;;;;;;18.98;10.73;;;;;;;;;;5033007;28;20045;-70
2022/01/26 06:49:29;;;;;;;21.10;11.25;;;;;;;;;;5033047;28;20397;-70
2022/01/26 06:51:57;;;;;;;22.27;11.98;;;;;;;;;;5031500;28;20041;-70
2022/01/26 06:54:25;;;;;;;23.73;11.77;;;;;;;;;;5039561;28;20061;-70
2022/01/26 06:57:17;;;;;;;22.42;12.18;;;;;;;;;;5051823;28;20056;-70
2022/01/26 06:59:49;;;;;;;22.70;12.05;;;;;;;;;;5051377;28;20139;-70
2022/01/26 07:02:21;;;;;;;20.85;12.05;;;;;;;;;;5052681;28;20049;-70
2022/01/26 07:04:55;;;;;;;20.08;12.15;;;;;;;;;;5054897;28;20111;-70
2022/01/26 07:07:23;;;;;;;31.10;12.43;;;;;;;;;;5057158;28;20056;-70
2022/01/26 07:09:52;;;;;;;24.17;12.55;;;;;;;;;;5055251;28;20037;-70
2022/01/26 07:12:22;;;;;;;23.85;11.57;;;;;;;;;;5056552;28;20087;-70
2022/01/26 07:22:59;;;;;;;24.88;12.40;;;;;;;;;;5055280;28;20157;-70
2022/01/26 07:25:29;;;;;;;24.67;13.20;;;;;;;;;;5054720;28;20136;-70
2022/01/26 07:28:21;;;;;;;31.00;13.73;;;;;;;;;;5055318;28;20404;-70
2022/01/26 07:31:14;;;;;;;27.77;12.23;;;;;;;;;;5056208;28;20067;-70
2022/01/26 07:33:46;;;;;;;18.38;10.52;;;;;;;;;;5054781;28;20049;-71
2022/01/26 07:36:20;;;;;;;22.23;11.20;;;;;;;;;;5055666;28;20049;-70
2022/01/26 07:38:50;;;;;;;22.52;12.43;;;;;;;;;;5056177;28;20043;-71
2022/01/26 07:41:19;;;;;;;28.08;10.60;;;;;;;;;;5056078;28;20119;-71
2022/01/26 07:43:52;;;;;;;19.60;11.65;;;;;;;;;;5055957;28;20045;-71
2022/01/26 07:46:27;;;;;;;31.20;18.50;;;;;;;;;;5054573;28;20045;-71
2022/01/26 07:48:57;;;;;;;25.23;12.48;;;;;;;;;;5055723;28;20518;-71
2022/01/26 07:51:27;;;;;;;23.17;12.05;;;;;;;;;;5055611;28;20049;-70
2022/01/26 07:53:54;;;;;;;23.88;12.45;;;;;;;;;;5055830;28;20053;-70
2022/01/26 07:56:22;;;;;;;25.05;13.30;;;;;;;;;;5054586;28;20407;-70
2022/01/26 07:58:51;;;;;;;24.85;11.70;;;;;;;;;;5055716;28;20049;-70
2022/01/26 08:01:24;;;;;;;24.73;12.77;;;;;;;;;;5054341;28;20549;-71
2022/01/26 08:03:53;;;;;;;22.35;12.50;;;;;;;;;;5054221;28;20488;-71
2022/01/26 08:06:21;;;;;;;20.85;10.95;;;;;;;;;;5055642;28;20399;-71
2022/01/26 08:08:59;;;;;;;22.70;11.45;;;;;;;;;;5054305;28;20430;-71
2022/01/26 08:11:30;;;;;;;24.80;13.15;;;;;;;;;;5055768;28;20045;-71
2022/01/26 08:13:59;;;;;;;21.55;12.02;;;;;;;;;;5054727;28;20510;-70
2022/01/26 08:16:32;;;;;;;20.58;11.80;;;;;;;;;;5054387;28;20091;-71
2022/01/26 08:19:04;;;;;;;24.85;13.30;;;;;;;;;;5055443;28;20084;-71
2022/01/26 08:21:32;;;;;;;27.20;13.20;;;;;;;;;;5053974;28;20048;-71
2022/01/26 08:24:03;;;;;;;24.08;11.65;;;;;;;;;;5054765;28;20124;-70
2022/01/26 08:26:41;;;;;;;21.50;12.27;;;;;;;;;;5053737;28;20040;-71
2022/01/26 08:29:16;;;;;;;21.23;11.75;;;;;;;;;;5055386;28;20522;-70
2022/01/26 08:31:46;;;;;;;26.48;12.82;;;;;;;;;;5055340;28;20123;-71
2022/01/26 08:34:20;;;;;;;24.85;12.50;;;;;;;;;;5055341;28;20127;-71
2022/01/26 08:36:48;;;;;;;19.77;11.67;;;;;;;;;;5054984;28;20045;-71
2022/01/26 08:39:18;;;;;;;21.20;12.20;;;;;;;;;;5054012;28;20045;-71
2022/01/26 08:42:10;;;;;;;21.73;12.10;;;;;;;;;;5053486;28;20051;-71
2022/01/26 08:44:38;;;;;;;26.50;12.70;;;;;;;;;;5055243;28;20037;-71
2022/01/26 08:47:28;;;;;;;23.90;12.80;;;;;;;;;;5054362;28;20045;-70
2022/01/26 08:49:55;;;;;;;26.42;12.35;;;;;;;;;;5054135;28;20041;-70
2022/01/26 08:52:29;;;;;;;23.23;13.15;;;;;;;;;;5054300;28;20044;-70
2022/01/26 08:54:57;;;;;;;24.98;13.95;;;;;;;;;;5053063;28;20049;-71
2022/01/26 08:57:27;;;;;;;21.90;12.18;;;;;;;;;;5054108;28;20044;-70
2022/01/26 08:59:59;;;;;;;22.73;12.52;;;;;;;;;;5054414;28;20133;-70
2022/01/26 09:02:53;;;;;;;18.17;10.80;;;;;;;;;;5054953;28;20064;-70
2022/01/26 09:05:21;;;;;;;21.98;12.23;;;;;;;;;;5054817;28;20045;-70
2022/01/26 09:07:50;;;;;;;22.90;11.98;;;;;;;;;;5053504;28;20040;-70
2022/01/26 09:10:26;;;;;;;21.55;11.90;;;;;;;;;;5054028;28;20049;-70
2022/01/26 09:12:53;;;;;;;22.58;11.73;;;;;;;;;;5054515;28;20075;-70
2022/01/26 09:15:27;;;;;;;21.90;12.38;;;;;;;;;;5054109;28;20049;-70
2022/01/26 09:18:01;;;;;;;21.30;11.30;;;;;;;;;;5052923;28;20094;-70
2022/01/26 09:20:33;;;;;;;19.02;10.30;;;;;;;;;;5052718;28;20051;-70
2022/01/26 09:23:05;;;;;;;21.80;11.10;;;;;;;;;;5054196;28;20140;-70
2022/01/26 09:25:37;;;;;;;21.58;11.43;;;;;;;;;;5053807;28;20075;-70
2022/01/26 09:28:04;;;;;;;18.50;10.38;;;;;;;;;;5052782;28;20049;-70
2022/01/26 09:30:32;;;;;;;22.83;11.88;;;;;;;;;;5053493;28;20048;-70
2022/01/26 09:33:01;;;;;;;19.77;11.50;;;;;;;;;;5052553;28;20048;-70
2022/01/26 09:35:34;;;;;;;19.33;11.02;;;;;;;;;;5052643;28;20041;-70
2022/01/26 09:38:03;;;;;;;19.60;10.48;;;;;;;;;;5053679;28;20395;-70
2022/01/26 09:40:35;;;;;;;18.70;10.75;;;;;;;;;;5052423;28;20048;-70
2022/01/26 09:43:02;;;;;;;24.65;11.35;;;;;;;;;;5054363;28;20044;-70
2022/01/26 09:45:34;;;;;;;24.02;11.07;;;;;;;;;;5052286;28;20049;-70
2022/01/26 09:48:05;;;;;;;21.27;10.77;;;;;;;;;;5053370;28;20508;-70
2022/01/26 09:50:56;;;;;;;18.25;11.00;;;;;;;;;;5053394;28;20080;-70
2022/01/26 09:53:29;;;;;;;17.85;10.93;;;;;;;;;;5053615;28;20052;-70
2022/01/26 09:56:01;;;;;;;20.10;10.43;;;;;;;;;;5052871;28;20132;-70
2022/01/26 09:58:54;;;;;;;19.33;11.80;;;;;;;;;;5052011;28;20060;-70
2022/01/26 10:01:47;;;;;;;21.17;10.63;;;;;;;;;;5053711;28;20115;-70
2022/01/26 10:04:28;;;;;;;18.23;10.43;;;;;;;;;;5053548;28;20044;-70
2022/01/26 10:07:08;;;;;;;20.80;10.48;;;;;;;;;;5053243;28;20072;-70
2022/01/26 10:17:46;;;;;;;21.17;11.30;;;;;;;;;;5052400;28;20484;-70
2022/01/26 10:20:17;;;;;;;21.60;11.57;;;;;;;;;;5053387;28;20052;-70
2022/01/26 10:22:50;;;;;;;23.52;11.18;;;;;;;;;;5052900;28;20045;-70
2022/01/26 10:25:43;;;;;;;17.60;10.57;;;;;;;;;;5053249;28;20048;-70
2022/01/26 10:28:36;;;;;;;16.02;9.73;;;;;;;;;;5053340;28;20041;-70
2022/01/26 10:31:12;;;;;;;15.68;9.30;;;;;;;;;;5053074;28;20144;-70
2022/01/26 10:37:57;;;;;;;18.73;9.38;;;;;;;;;;5052522;28;20021;-70
2022/01/26 10:40:49;;;;;;;22.13;12.27;;;;;;;;;;5057438;28;20402;-70
2022/01/26 10:43:19;;;;;;;19.55;10.52;;;;;;;;;;5057346;28;20128;-70
2022/01/26 10:46:04;;;;;;;17.73;10.27;;;;;;;;;;5056923;28;20060;-70
2022/01/26 10:49:03;;;;;;;22.38;11.93;;;;;;;;;;5056236;28;20045;-70
2022/01/26 10:52:00;;;;;;;19.63;11.07;;;;;;;;;;5055386;28;20047;-70
2022/01/26 10:54:35;;;;;;;19.58;10.50;;;;;;;;;;5056435;28;20053;-70
2022/01/26 10:57:29;;;;;;;18.77;9.80;;;;;;;;;;5056657;28;20048;-71
2022/01/26 10:59:58;;;;;;;18.23;10.40;;;;;;;;;;5055623;28;20047;-70
2022/01/26 11:02:29;;;;;;;16.75;9.77;;;;;;;;;;5056641;28;20080;-70
2022/01/26 11:04:58;;;;;;;19.10;10.38;;;;;;;;;;5056513;28;20043;-70
2022/01/26 11:07:40;;;;;;;17.15;10.15;;;;;;;;;;5057063;28;20395;-71
2022/01/26 11:10:12;;;;;;;18.52;11.02;;;;;;;;;;5056595;28;20438;-70
2022/01/26 11:12:42;;;;;;;19.27;10.68;;;;;;;;;;5056537;28;20124;-70
2022/01/26 11:15:13;;;;;;;15.55;9.50;;;;;;;;;;5055131;28;20071;-70
2022/01/26 11:18:06;;;;;;;22.65;10.05;;;;;;;;;;5056832;28;20041;-70
2022/01/26 11:20:50;;;;;;;18.20;9.70;;;;;;;;;;5055253;28;20081;-70
2022/01/26 11:23:40;;;;;;;17.45;9.13;;;;;;;;;;5055932;28;20037;-70
2022/01/26 11:26:22;;;;;;;15.95;9.18;;;;;;;;;;5056227;28;20040;-70
2022/01/26 11:28:52;;;;;;;18.95;10.00;;;;;;;;;;5056101;28;20041;-70
2022/01/26 11:31:25;;;;;;;17.83;8.93;;;;;;;;;;5056543;28;20035;-70
2022/01/26 11:34:16;;;;;;;19.45;8.82;;;;;;;;;;5056131;28;20480;-70
2022/01/26 11:36:48;;;;;;;16.95;8.95;;;;;;;;;;5056036;28;20124;-70
2022/01/26 11:42:28;;;;;;;17.52;8.48;;;;;;;;;;5054524;28;20044;-70
2022/01/26 11:45:08;;;;;;;14.38;8.55;;;;;;;;;;5054629;28;20076;-70
2022/01/26 11:47:39;;;;;;;12.23;8.02;;;;;;;;;;5055743;28;20051;-70
2022/01/26 11:50:09;;;;;;;11.85;7.40;;;;;;;;;;5054116;28;20051;-70
2022/01/26 11:52:46;;;;;;;12.32;7.03;;;;;;;;;;5055458;28;20144;-70
2022/01/26 11:55:24;;;;;;;14.63;7.40;;;;;;;;;;5054195;28;20496;-71
2022/01/26 11:57:55;;;;;;;13.93;7.85;;;;;;;;;;5054400;28;20430;-71
2022/01/26 12:00:38;;;;;;;19.08;8.35;;;;;;;;;;5055607;28;20400;-70
2022/01/26 12:03:19;;;;;;;14.10;7.90;;;;;;;;;;5055366;28;20049;-70
2022/01/26 12:05:52;;;;;;;14.95;7.88;;;;;;;;;;5055599;28;20380;-70
2022/01/26 12:08:34;;;;;;;16.95;7.15;;;;;;;;;;5055358;28;20091;-70
2022/01/26 12:11:05;;;;;;;16.55;7.95;;;;;;;;;;5053804;28;20099;-70
2022/01/26 12:13:38;;;;;;;12.82;7.80;;;;;;;;;;5055310;28;20467;-70
2022/01/26 12:16:13;;;;;;;18.52;9.13;;;;;;;;;;5055515;28;20065;-70
2022/01/26 12:18:52;;;;;;;20.17;9.60;;;;;;;;;;5055054;28;20075;-70
2022/01/26 12:35:54;;;;;;;20.75;10.35;;;;;;;;;;5054798;28;20533;-70
2022/01/26 12:38:43;;;;;;;17.35;10.27;;;;;;;;;;5053745;28;20080;-70
2022/01/26 12:41:27;;;;;;;19.48;10.80;;;;;;;;;;5055010;28;20052;-70
2022/01/26 12:44:07;;;;;;;17.05;9.63;;;;;;;;;;5053342;28;20067;-70
2022/01/26 12:46:38;;;;;;;15.40;9.23;;;;;;;;;;5053242;28;20106;-70
2022/01/26 12:49:15;;;;;;;17.90;9.57;;;;;;;;;;5055118;28;20555;-70
2022/01/26 12:51:54;;;;;;;17.20;10.27;;;;;;;;;;5052874;28;20132;-70
2022/01/26 12:54:22;;;;;;;17.38;10.65;;;;;;;;;;5054546;28;20107;-70
2022/01/26 12:57:14;;;;;;;18.52;9.63;;;;;;;;;;5054472;28;20510;-70
2022/01/26 12:59:47;;;;;;;19.02;10.43;;;;;;;;;;5054735;28;20068;-70
2022/01/26 13:02:27;;;;;;;17.88;10.85;;;;;;;;;;5052880;28;20052;-70
2022/01/26 13:04:58;;;;;;;21.77;11.10;;;;;;;;;;5054587;28;20472;-70
2022/01/26 13:07:30;;;;;;;16.17;9.48;;;;;;;;;;5054545;28;20090;-70
2022/01/26 13:09:59;;;;;;;15.98;9.35;;;;;;;;;;5054790;28;20483;-70
2022/01/26 13:12:30;;;;;;;19.63;11.52;;;;;;;;;;5052731;28;20045;-70
2022/01/26 13:15:21;;;;;;;17.83;9.38;;;;;;;;;;5054143;28;20037;-70
2022/01/26 13:17:58;;;;;;;17.77;9.63;;;;;;;;;;5052723;28;20041;-70
2022/01/26 13:36:42;;;;;;;15.32;7.88;;;;;;;;;;5053965;28;20072;-70
2022/01/26 13:59:32;;;;;;;10.52;5.63;;;;;;;;;;5051319;28;20395;-71
2022/01/26 14:02:03;;;;;;;11.23;5.50;;;;;;;;;;5053325;28;20428;-70
2022/01/26 14:04:32;;;;;;;11.27;5.78;;;;;;;;;;5053258;28;20460;-70
2022/01/26 14:10:05;;;;;;;9.32;5.70;;;;;;;;;;5053217;28;20131;-70
2022/01/26 14:12:45;;;;;;;13.38;5.72;;;;;;;;;;5051986;28;20083;-70
2022/01/26 14:15:24;;;;;;;25.83;7.57;;;;;;;;;;5053351;28;20041;-70
2022/01/26 14:18:08;;;;;;;17.13;6.72;;;;;;;;;;5053390;28;20037;-70
2022/01/26 14:25:54;;;;;;;10.65;6.57;;;;;;;;;;5053060;28;20040;-70
2022/01/26 14:28:33;;;;;;;12.38;6.47;;;;;;;;;;5053496;28;20037;-70
2022/01/26 14:33:47;;;;;;;9.85;5.53;;;;;;;;;;5052766;28;20029;-71
2022/01/26 15:19:53;;;;;;;14.27;7.78;;;;;;;;;;5031921;28;20080;-76
2022/01/26 15:50:42;;;;;;;16.08;8.50;;;;;;;;;;5044651;28;20045;-71
2022/01/26 15:57:19;;;;;;;18.52;8.65;;;;;;;;;;5051779;28;20037;-70
2022/01/26 16:04:39;;;;;;;13.60;7.45;;;;;;;;;;5053846;28;20041;-71
2022/01/26 16:07:20;;;;;;;16.98;8.63;;;;;;;;;;5052115;28;20107;-71
2022/01/26 18:07:11;;;;;;;25.88;13.35;;;;;;;;;;5051992;28;20049;-72
2022/01/26 18:55:05;;;;;;;31.35;15.23;;;;;;;;;;5042860;28;21057;-72
2022/01/26 18:57:32;;;;;;;29.23;15.60;;;;;;;;;;5051220;28;20127;-71
2022/01/26 19:00:00;;;;;;;30.63;14.90;;;;;;;;;;5053362;28;20037;-73
2022/01/26 19:02:28;;;;;;;33.70;15.70;;;;;;;;;;5056061;28;20091;-72
2022/01/26 19:05:09;;;;;;;32.72;15.85;;;;;;;;;;5056050;28;20687;-73
2022/01/26 19:08:02;;;;;;;34.20;16.25;;;;;;;;;;5054990;28;20403;-73
2022/01/26 19:10:57;;;;;;;34.72;15.95;;;;;;;;;;5054877;28;20056;-72
2022/01/26 19:13:30;;;;;;;32.00;15.82;;;;;;;;;;5055671;28;20424;-73
2022/01/26 19:16:05;;;;;;;31.13;16.05;;;;;;;;;;5056063;28;20470;-73
2022/01/26 19:18:51;;;;;;;35.50;15.65;;;;;;;;;;5056512;28;20041;-73
2022/01/26 19:26:35;;;;;;;35.47;17.10;;;;;;;;;;5055863;28;20446;-72
2022/01/26 19:29:18;;;;;;;32.05;16.70;;;;;;;;;;5056357;28;20056;-75
2022/01/26 19:51:00;;;;;;;34.38;17.10;;;;;;;;;;5053389;28;20045;-73
2022/01/26 19:53:28;;;;;;;32.30;17.27;;;;;;;;;;5054218;28;20041;-73
2022/01/26 19:55:55;;;;;;;33.38;16.95;;;;;;;;;;5055005;28;20061;-73
2022/01/26 19:58:25;;;;;;;34.38;17.33;;;;;;;;;;5054281;28;20384;-73
2022/01/26 20:00:53;;;;;;;37.15;16.83;;;;;;;;;;5054835;28;20044;-73
2022/01/26 20:03:23;;;;;;;31.83;16.40;;;;;;;;;;5055134;28;20041;-73
2022/01/26 20:05:52;;;;;;;39.95;17.40;;;;;;;;;;5055779;28;20045;-73
2022/01/26 20:10:55;;;;;;;33.42;15.35;;;;;;;;;;5053933;28;20044;-71
2022/01/26 20:13:27;;;;;;;33.17;15.38;;;;;;;;;;5054045;28;20041;-73
2022/01/26 20:15:56;;;;;;;31.80;15.32;;;;;;;;;;5054316;28;20136;-73
2022/01/26 20:18:26;;;;;;;30.95;14.98;;;;;;;;;;5055304;28;20534;-71
2022/01/26 20:20:58;;;;;;;30.42;15.10;;;;;;;;;;5054821;28;20494;-73
2022/01/26 20:23:28;;;;;;;30.58;15.40;;;;;;;;;;5055142;28;20460;-72
2022/01/26 20:26:00;;;;;;;33.15;16.13;;;;;;;;;;5055011;28;20045;-72
2022/01/26 20:28:30;;;;;;;43.00;15.43;;;;;;;;;;5054911;28;20055;-71
2022/01/26 20:31:00;;;;;;;31.15;15.45;;;;;;;;;;5054951;28;20140;-71
2022/01/26 20:33:30;;;;;;;30.15;15.52;;;;;;;;;;5054682;28;20053;-72
2022/01/26 20:35:58;;;;;;;32.15;16.27;;;;;;;;;;5054810;28;20174;-72
2022/01/26 20:38:27;;;;;;;33.13;16.45;;;;;;;;;;5054931;28;20041;-72
2022/01/26 20:40:55;;;;;;;34.20;16.52;;;;;;;;;;5054247;28;20064;-73
2022/01/26 20:43:23;;;;;;;36.58;17.55;;;;;;;;;;5053866;28;20059;-72
2022/01/26 20:45:51;;;;;;;33.42;15.35;;;;;;;;;;5054373;28;20412;-72
2022/01/26 20:48:19;;;;;;;35.10;16.75;;;;;;;;;;5051543;28;20559;-72
2022/01/26 20:50:47;;;;;;;35.45;17.55;;;;;;;;;;5051297;28;20041;-72
2022/01/26 20:53:15;;;;;;;34.72;17.23;;;;;;;;;;5052901;28;20583;-72
2022/01/26 20:55:43;;;;;;;37.72;16.80;;;;;;;;;;5052696;28;20415;-72
2022/01/26 20:58:10;;;;;;;32.63;16.42;;;;;;;;;;5036967;28;20045;-72
2022/01/26 21:00:59;;;;;;;33.60;17.25;;;;;;;;;;5052893;28;20051;-73
2022/01/26 21:03:28;;;;;;;38.15;17.70;;;;;;;;;;5054222;28;20049;-72
2022/01/26 21:05:55;;;;;;;31.13;16.08;;;;;;;;;;5053396;28;20049;-72
2022/01/26 21:08:23;;;;;;;38.80;17.63;;;;;;;;;;5053753;28;20067;-70
2022/01/26 21:10:53;;;;;;;34.85;18.10;;;;;;;;;;5051922;28;20045;-72
2022/01/26 21:17:25;;;;;;;38.50;16.90;;;;;;;;;;5053749;28;20117;-73
2022/01/26 21:19:52;;;;;;;36.05;16.63;;;;;;;;;;5053427;28;20051;-72
2022/01/26 21:22:24;;;;;;;40.05;17.88;;;;;;;;;;5052438;28;20052;-72
2022/01/26 21:24:56;;;;;;;38.13;17.67;;;;;;;;;;5053440;28;20053;-72
2022/01/26 21:27:24;;;;;;;41.63;18.05;;;;;;;;;;5052698;28;20072;-72
2022/01/26 21:29:56;;;;;;;37.40;17.95;;;;;;;;;;5053124;28;20044;-72
2022/01/26 21:32:28;;;;;;;36.60;18.00;;;;;;;;;;5052294;28;20048;-72
2022/01/26 21:34:59;;;;;;;39.08;18.88;;;;;;;;;;5054062;28;20472;-72
2022/01/26 21:37:27;;;;;;;40.13;17.77;;;;;;;;;;5054365;28;20064;-72
2022/01/26 21:39:56;;;;;;;41.17;18.55;;;;;;;;;;5035777;28;20041;-73
2022/01/26 21:42:29;;;;;;;39.40;18.02;;;;;;;;;;5052413;28;20041;-72
2022/01/26 21:44:58;;;;;;;39.95;18.20;;;;;;;;;;5052405;28;20125;-72
2022/01/26 21:47:26;;;;;;;38.55;18.13;;;;;;;;;;5052977;28;20053;-73
2022/01/26 21:49:58;;;;;;;37.42;17.35;;;;;;;;;;5053890;28;20036;-72
2022/01/26 21:52:30;;;;;;;36.60;18.30;;;;;;;;;;5053179;28;20044;-72
2022/01/26 21:54:58;;;;;;;43.97;19.92;;;;;;;;;;5051399;28;20052;-72
2022/01/26 21:57:26;;;;;;;39.97;18.65;;;;;;;;;;5051994;28;20048;-72
2022/01/26 21:59:55;;;;;;;40.58;19.20;;;;;;;;;;5053736;28;20041;-72
2022/01/26 22:02:22;;;;;;;45.47;19.55;;;;;;;;;;5053148;28;20468;-72
2022/01/26 22:05:15;;;;;;;40.15;18.77;;;;;;;;;;5052218;28;20095;-72
2022/01/26 22:07:48;;;;;;;40.10;19.38;;;;;;;;;;5053529;28;20068;-72
2022/01/26 22:10:16;;;;;;;42.80;19.83;;;;;;;;;;5051986;28;20041;-72
2022/01/26 22:13:09;;;;;;;41.67;18.50;;;;;;;;;;5052665;28;20045;-72
2022/01/26 22:19:40;;;;;;;41.40;19.30;;;;;;;;;;5053293;28;20498;-72
2022/01/26 22:22:08;;;;;;;47.28;18.95;;;;;;;;;;5051382;28;20037;-72
2022/01/26 22:24:37;;;;;;;42.90;19.58;;;;;;;;;;5053051;28;20083;-72
2022/01/26 22:27:05;;;;;;;41.55;19.42;;;;;;;;;;5053374;28;20095;-72
2022/01/26 22:30:00;;;;;;;43.80;19.65;;;;;;;;;;5053024;28;20036;-72
2022/01/26 22:32:32;;;;;;;42.55;19.48;;;;;;;;;;5051868;28;20045;-72